Time;durP1;ratioP1;P1;durP2;ratioP2;P2;SDS_P1;SDS_P2;PMS_P1;PMS_P2;Temp;Humidity;BMP_temperature;BMP_pressure;BME280_temperature;BME280_humidity;BME280_pressure;Samples;Min_cycle;Max_cycle;Signal;HPM_P1;HPM_P2
2023/12/12 00:01:52;;;;;;;37.88;25.48;;;24.20;99.90;;;;;;4974524;28;20131;-47
2023/12/12 00:04:18;;;;;;;41.13;26.73;;;24.20;99.90;;;;;;4975121;28;20037;-46
2023/12/12 00:06:43;;;;;;;39.88;26.63;;;24.20;99.90;;;;;;4974801;28;20464;-46
2023/12/12 00:09:09;;;;;;;37.88;25.85;;;24.20;99.90;;;;;;4974866;28;20449;-46
2023/12/12 00:11:35;;;;;;;37.25;26.17;;;24.20;99.90;;;;;;4974802;28;20027;-46
2023/12/12 00:14:01;;;;;;;41.03;25.70;;;24.20;99.90;;;;;;4975346;28;20061;-46
2023/12/12 00:16:26;;;;;;;36.80;25.92;;;24.20;99.90;;;;;;4974008;28;20049;-46
2023/12/12 00:18:52;;;;;;;37.42;25.40;;;24.20;99.90;;;;;;4974644;28;20060;-46
2023/12/12 00:21:18;;;;;;;40.55;25.80;;;24.20;99.90;;;;;;4974642;28;20054;-46
2023/12/12 00:23:44;;;;;;;30.27;21.13;;;24.20;99.90;;;;;;4974469;28;20061;-47
2023/12/12 00:26:12;;;;;;;32.58;22.52;;;24.20;99.90;;;;;;4974793;28;20023;-47
2023/12/12 00:28:38;;;;;;;34.42;24.08;;;24.20;99.90;;;;;;4974468;28;20117;-47
2023/12/12 00:31:04;;;;;;;32.47;21.20;;;24.20;99.90;;;;;;4973974;28;20146;-48
2023/12/12 00:33:30;;;;;;;37.03;24.55;;;24.20;99.90;;;;;;4981264;28;20570;-47
2023/12/12 00:35:57;;;;;;;39.97;24.85;;;24.20;99.90;;;;;;4974713;28;20114;-46
2023/12/12 00:38:28;;;;;;;38.13;23.63;;;24.20;99.90;;;;;;4973541;28;20052;-48
2023/12/12 00:40:54;;;;;;;33.33;21.73;;;24.20;99.90;;;;;;4973379;28;20273;-48
2023/12/12 00:43:21;;;;;;;34.08;23.30;;;24.20;99.90;;;;;;4974277;28;20027;-48
2023/12/12 00:45:47;;;;;;;34.33;23.50;;;24.20;99.90;;;;;;4974104;28;20019;-50
2023/12/12 00:48:13;;;;;;;33.25;24.10;;;24.20;99.90;;;;;;4977682;28;20029;-46
2023/12/12 00:50:39;;;;;;;36.40;21.70;;;24.20;99.90;;;;;;4981377;28;20106;-49
2023/12/12 00:53:04;;;;;;;29.38;21.27;;;24.10;99.90;;;;;;4973686;28;20486;-48
2023/12/12 00:55:31;;;;;;;29.48;21.15;;;24.10;99.90;;;;;;4974489;28;20081;-47
2023/12/12 00:57:57;;;;;;;31.52;22.05;;;24.10;99.90;;;;;;4994809;28;20453;-48
2023/12/12 01:00:23;;;;;;;31.40;22.00;;;24.10;99.90;;;;;;4978623;28;20031;-48
2023/12/12 01:02:49;;;;;;;30.48;20.67;;;24.10;99.90;;;;;;4974245;28;20058;-50
2023/12/12 01:05:15;;;;;;;32.30;20.27;;;24.10;99.90;;;;;;4990284;28;20023;-49
2023/12/12 01:07:41;;;;;;;31.08;21.50;;;24.10;99.90;;;;;;4973738;28;20415;-49
2023/12/12 01:10:07;;;;;;;30.40;20.98;;;24.10;99.90;;;;;;4973776;28;20023;-48
2023/12/12 01:12:34;;;;;;;29.13;19.75;;;24.10;99.90;;;;;;4972887;28;20070;-47
2023/12/12 01:14:59;;;;;;;33.70;20.70;;;24.00;99.90;;;;;;4973660;28;20431;-48
2023/12/12 01:17:29;;;;;;;30.02;20.02;;;24.00;99.90;;;;;;4980855;28;20031;-49
2023/12/12 01:19:55;;;;;;;31.73;20.27;;;24.00;99.90;;;;;;4968942;28;20042;-46
2023/12/12 01:22:20;;;;;;;28.65;19.08;;;24.10;99.90;;;;;;4973845;28;20015;-47
2023/12/12 01:24:46;;;;;;;26.00;18.80;;;24.00;99.90;;;;;;4979584;28;20395;-47
2023/12/12 01:27:12;;;;;;;29.60;20.33;;;24.10;99.90;;;;;;4972347;28;20403;-47
2023/12/12 01:29:38;;;;;;;24.20;17.08;;;24.00;99.90;;;;;;4973555;28;20039;-48
2023/12/12 01:32:05;;;;;;;24.75;17.42;;;24.00;99.90;;;;;;4973730;28;20094;-47
2023/12/12 01:34:30;;;;;;;25.75;17.20;;;24.00;99.90;;;;;;4972737;28;20030;-48
2023/12/12 01:36:57;;;;;;;25.30;18.20;;;24.00;99.90;;;;;;4973380;28;20438;-47
2023/12/12 01:39:22;;;;;;;24.80;17.33;;;24.00;99.90;;;;;;4972948;28;20118;-47
2023/12/12 01:41:49;;;;;;;23.35;17.35;;;24.00;99.90;;;;;;4973322;28;20102;-47
2023/12/12 01:44:15;;;;;;;27.90;17.48;;;24.00;99.90;;;;;;4972755;28;20038;-46
2023/12/12 01:46:44;;;;;;;25.50;16.77;;;24.00;99.90;;;;;;4972388;28;20082;-47
2023/12/12 01:49:10;;;;;;;23.65;17.67;;;24.00;99.90;;;;;;4972760;28;20027;-47
2023/12/12 01:51:37;;;;;;;22.20;16.70;;;24.00;99.90;;;;;;4966027;28;20058;-48
2023/12/12 01:54:04;;;;;;;24.33;17.75;;;24.00;99.90;;;;;;4972420;28;20031;-47
2023/12/12 01:56:31;;;;;;;29.27;17.65;;;24.00;99.90;;;;;;4973138;28;20022;-47
2023/12/12 01:58:58;;;;;;;30.60;17.55;;;24.00;99.90;;;;;;4973125;28;20039;-47
2023/12/12 02:01:26;;;;;;;26.75;17.90;;;23.90;99.90;;;;;;4973461;28;20411;-47
2023/12/12 02:03:55;;;;;;;25.40;17.90;;;23.90;99.90;;;;;;4973310;28;20034;-47
2023/12/12 02:06:22;;;;;;;27.90;18.17;;;23.90;99.90;;;;;;4973316;28;20042;-47
2023/12/12 02:08:49;;;;;;;;;;;23.90;99.90;;;;;;4973406;28;20420;-46
2023/12/12 02:11:16;;;;;;;24.88;17.63;;;23.90;99.90;;;;;;4973100;28;20045;-47
2023/12/12 02:13:42;;;;;;;25.47;17.70;;;23.90;99.90;;;;;;4973174;28;20503;-47
2023/12/12 02:16:09;;;;;;;24.30;16.88;;;23.90;99.90;;;;;;4973129;28;20268;-46
2023/12/12 02:18:35;;;;;;;25.07;17.60;;;23.80;99.90;;;;;;4971090;28;20035;-47
2023/12/12 02:21:01;;;;;;;27.73;17.10;;;23.80;99.90;;;;;;4972445;28;20098;-47
2023/12/12 02:23:30;;;;;;;25.20;16.73;;;23.80;99.90;;;;;;4971252;28;20476;-46
2023/12/12 02:25:58;;;;;;;24.73;17.08;;;23.80;99.90;;;;;;4972535;28;20511;-45
2023/12/12 02:28:24;;;;;;;26.10;17.40;;;23.80;99.90;;;;;;4972717;28;20499;-46
2023/12/12 02:30:50;;;;;;;23.75;15.98;;;23.70;99.90;;;;;;4973522;28;20043;-46
2023/12/12 02:33:16;;;;;;;24.77;15.55;;;23.70;99.90;;;;;;4972985;28;20045;-45
2023/12/12 02:35:42;;;;;;;22.73;15.07;;;23.70;99.90;;;;;;4973165;28;20475;-47
2023/12/12 02:38:08;;;;;;;22.10;15.10;;;23.70;99.90;;;;;;4972902;28;20524;-45
2023/12/12 02:40:34;;;;;;;26.73;14.88;;;23.70;99.90;;;;;;4973178;28;20110;-45
2023/12/12 02:43:00;;;;;;;22.42;15.35;;;23.70;99.90;;;;;;4973188;28;20039;-45
2023/12/12 02:45:26;;;;;;;23.05;16.10;;;23.70;99.90;;;;;;4972972;28;20475;-45
2023/12/12 02:47:52;;;;;;;23.60;16.08;;;23.70;99.90;;;;;;4973089;28;20085;-45
2023/12/12 02:50:18;;;;;;;24.52;15.00;;;23.70;99.90;;;;;;4972953;28;20051;-45
2023/12/12 02:52:44;;;;;;;21.13;14.98;;;23.60;99.90;;;;;;4972828;28;20114;-45
2023/12/12 02:55:10;;;;;;;18.70;14.57;;;23.70;99.90;;;;;;4972816;28;20531;-46
2023/12/12 02:57:36;;;;;;;19.88;14.00;;;23.60;99.90;;;;;;4972818;28;20026;-46
2023/12/12 03:00:03;;;;;;;19.52;14.48;;;23.60;99.90;;;;;;4972840;28;20089;-46
2023/12/12 03:02:30;;;;;;;;;;;23.60;99.90;;;;;;4973982;28;20523;-45
2023/12/12 03:04:57;;;;;;;24.35;15.57;;;23.60;99.90;;;;;;4976315;28;19910;-45
2023/12/12 03:07:23;;;;;;;24.23;16.08;;;23.60;99.90;;;;;;4976787;28;20034;-46
2023/12/12 03:09:49;;;;;;;24.48;14.35;;;23.60;99.90;;;;;;4975883;28;20039;-45
2023/12/12 03:12:15;;;;;;;20.60;14.63;;;23.60;99.90;;;;;;4976468;28;20102;-46
2023/12/12 03:14:41;;;;;;;22.35;15.18;;;23.50;99.90;;;;;;4975289;28;20496;-46
2023/12/12 03:17:07;;;;;;;18.05;12.90;;;23.50;99.90;;;;;;4976093;28;20114;-45
2023/12/12 03:19:33;;;;;;;18.10;13.77;;;23.50;99.90;;;;;;4976046;28;20106;-45
2023/12/12 03:21:58;;;;;;;20.67;13.38;;;23.50;99.90;;;;;;4976047;28;20026;-46
2023/12/12 03:24:24;;;;;;;17.92;13.40;;;23.50;99.90;;;;;;4976324;28;20074;-45
2023/12/12 03:26:50;;;;;;;18.85;12.45;;;23.50;99.90;;;;;;4976150;28;20023;-46
2023/12/12 03:29:16;;;;;;;21.55;14.50;;;23.50;99.90;;;;;;4975930;28;20444;-46
2023/12/12 03:31:41;;;;;;;22.13;14.82;;;23.50;99.90;;;;;;4976059;28;20106;-46
2023/12/12 03:34:08;;;;;;;16.67;12.70;;;23.40;99.90;;;;;;4975994;28;20081;-46
2023/12/12 03:36:34;;;;;;;21.48;13.30;;;23.40;99.90;;;;;;4975888;28;20018;-47
2023/12/12 03:39:00;;;;;;;19.05;13.63;;;23.40;99.90;;;;;;4974459;28;20035;-47
2023/12/12 03:41:28;;;;;;;18.60;13.57;;;23.40;99.90;;;;;;4976113;28;20468;-46
2023/12/12 03:43:54;;;;;;;17.45;12.57;;;23.40;99.90;;;;;;4976040;28;20030;-47
2023/12/12 03:46:20;;;;;;;18.23;13.10;;;23.40;99.90;;;;;;4975450;28;20030;-46
2023/12/12 03:48:47;;;;;;;19.00;13.38;;;23.40;99.90;;;;;;4975200;28;20031;-47
2023/12/12 03:51:13;;;;;;;19.10;12.85;;;23.40;99.90;;;;;;4975466;28;20062;-47
2023/12/12 03:53:39;;;;;;;17.08;12.63;;;23.30;99.90;;;;;;4975550;28;20057;-46
2023/12/12 03:56:06;;;;;;;20.67;13.27;;;23.30;99.90;;;;;;4975707;28;20023;-47
2023/12/12 03:58:32;;;;;;;15.18;11.68;;;23.30;99.90;;;;;;4975265;28;20039;-47
2023/12/12 04:00:58;;;;;;;17.05;12.05;;;23.30;99.90;;;;;;4976019;28;20027;-47
2023/12/12 04:03:24;;;;;;;17.20;12.40;;;23.20;99.90;;;;;;4975149;28;20089;-47
2023/12/12 04:05:50;;;;;;;16.67;11.88;;;23.30;99.90;;;;;;4975369;28;20031;-47
2023/12/12 04:08:16;;;;;;;16.13;12.32;;;23.30;99.90;;;;;;4974903;28;20031;-47
2023/12/12 04:10:41;;;;;;;15.50;11.50;;;23.20;99.90;;;;;;4971438;28;20432;-47
2023/12/12 04:13:07;;;;;;;19.25;11.40;;;23.20;99.90;;;;;;4956044;28;20066;-47
2023/12/12 04:15:33;;;;;;;16.52;11.10;;;23.20;99.90;;;;;;4966716;28;20030;-47
2023/12/12 04:17:59;;;;;;;15.05;10.55;;;23.20;99.90;;;;;;4974972;28;20041;-47
2023/12/12 04:20:25;;;;;;;17.33;12.00;;;23.20;99.90;;;;;;4975086;28;20349;-47
2023/12/12 04:22:51;;;;;;;18.98;11.85;;;23.20;99.90;;;;;;4975126;28;20035;-47
2023/12/12 04:25:17;;;;;;;15.32;11.27;;;23.20;99.90;;;;;;4975009;28;20023;-47
2023/12/12 04:27:42;;;;;;;18.70;12.50;;;23.20;99.90;;;;;;4974287;28;20398;-47
2023/12/12 04:30:09;;;;;;;16.63;11.25;;;23.10;99.90;;;;;;4974657;28;20030;-47
2023/12/12 04:32:34;;;;;;;15.02;11.10;;;23.10;99.90;;;;;;4974974;28;20122;-47
2023/12/12 04:35:00;;;;;;;19.00;12.20;;;23.10;99.90;;;;;;4974697;28;20030;-47
2023/12/12 04:37:26;;;;;;;16.85;10.80;;;23.10;99.90;;;;;;4974873;28;20030;-47
2023/12/12 04:39:52;;;;;;;16.05;11.25;;;23.10;99.90;;;;;;4960492;28;20031;-46
2023/12/12 04:42:19;;;;;;;16.42;10.88;;;23.10;99.90;;;;;;4955470;28;20026;-47
2023/12/12 04:44:45;;;;;;;17.02;11.30;;;23.10;99.90;;;;;;4955425;28;20106;-47
2023/12/12 04:47:11;;;;;;;16.15;10.80;;;23.10;99.90;;;;;;4955447;28;20098;-46
2023/12/12 04:49:37;;;;;;;18.75;12.57;;;23.10;99.90;;;;;;4955458;28;20384;-47
2023/12/12 04:52:04;;;;;;;14.98;11.30;;;23.00;99.90;;;;;;4963071;28;20411;-47
2023/12/12 04:54:30;;;;;;;14.10;10.68;;;23.10;99.90;;;;;;4973819;28;20062;-47
2023/12/12 04:56:56;;;;;;;14.55;10.77;;;23.00;99.90;;;;;;4973809;28;20031;-47
2023/12/12 04:59:22;;;;;;;14.85;10.63;;;23.00;99.90;;;;;;4972959;28;20033;-47
2023/12/12 05:01:49;;;;;;;16.30;11.40;;;23.00;99.90;;;;;;4974579;28;20039;-47
2023/12/12 05:04:15;;;;;;;19.40;12.40;;;23.00;99.90;;;;;;4974139;28;20081;-47
2023/12/12 05:06:41;;;;;;;21.05;10.93;;;23.00;99.90;;;;;;4954118;28;20023;-47
2023/12/12 05:09:07;;;;;;;16.88;10.82;;;23.00;99.90;;;;;;4961943;28;20027;-46
2023/12/12 05:11:33;;;;;;;13.32;10.48;;;23.00;99.90;;;;;;4974108;28;20167;-46
2023/12/12 05:13:59;;;;;;;14.25;10.63;;;23.00;99.90;;;;;;4974200;28;20088;-46
2023/12/12 05:16:25;;;;;;;15.55;10.70;;;23.00;99.90;;;;;;4973856;28;20470;-46
2023/12/12 05:18:51;;;;;;;14.38;10.23;;;23.00;99.90;;;;;;4973766;28;20425;-47
2023/12/12 05:21:21;;;;;;;15.00;9.38;;;23.00;99.90;;;;;;4973997;28;20111;-46
2023/12/12 05:23:47;;;;;;;14.35;9.77;;;22.90;99.90;;;;;;4974027;28;20102;-47
2023/12/12 05:26:12;;;;;;;13.82;10.30;;;22.90;99.90;;;;;;4973393;28;20149;-46
2023/12/12 05:28:38;;;;;;;15.10;10.63;;;22.90;99.90;;;;;;4973764;28;20023;-46
2023/12/12 05:31:04;;;;;;;13.68;10.73;;;22.90;99.90;;;;;;4973964;28;20427;-46
2023/12/12 05:33:30;;;;;;;15.55;10.50;;;22.90;99.90;;;;;;4974040;28;20037;-46
2023/12/12 05:35:55;;;;;;;13.85;10.10;;;22.90;99.90;;;;;;4973782;28;20037;-46
2023/12/12 05:38:21;;;;;;;16.83;10.20;;;22.90;99.90;;;;;;4973331;28;20117;-46
2023/12/12 05:40:47;;;;;;;12.95;9.57;;;22.90;99.90;;;;;;4973609;28;20498;-46
2023/12/12 05:43:13;;;;;;;15.45;10.15;;;22.90;99.90;;;;;;4973826;28;20419;-46
2023/12/12 05:45:38;;;;;;;13.95;9.30;;;22.80;99.90;;;;;;4973509;28;20023;-46
2023/12/12 05:48:04;;;;;;;13.93;8.95;;;22.90;99.90;;;;;;4973607;28;20364;-46
2023/12/12 05:50:30;;;;;;;15.73;11.00;;;22.80;99.90;;;;;;4973576;28;20114;-46
2023/12/12 05:52:56;;;;;;;14.40;9.90;;;22.80;99.90;;;;;;4973721;28;20105;-46
2023/12/12 05:55:22;;;;;;;14.25;9.48;;;22.80;99.90;;;;;;4973282;28;20490;-46
2023/12/12 05:57:51;;;;;;;13.27;10.10;;;22.80;99.90;;;;;;4973494;28;20039;-46
2023/12/12 06:00:17;;;;;;;16.45;9.77;;;22.80;99.90;;;;;;4973271;28;20035;-46
2023/12/12 06:02:42;;;;;;;11.45;9.18;;;22.80;99.90;;;;;;4973238;28;20042;-46
2023/12/12 06:05:09;;;;;;;12.95;9.25;;;22.80;99.90;;;;;;4973205;28;20027;-46
2023/12/12 06:07:36;;;;;;;11.83;9.40;;;22.80;99.90;;;;;;4973393;28;20058;-46
2023/12/12 06:10:04;;;;;;;12.30;8.88;;;22.80;99.90;;;;;;4973745;28;20022;-46
2023/12/12 06:12:31;;;;;;;12.07;9.13;;;22.80;99.90;;;;;;4973323;28;20039;-46
2023/12/12 06:14:57;;;;;;;14.52;9.70;;;22.80;99.90;;;;;;4973025;28;20038;-47
2023/12/12 06:17:23;;;;;;;13.63;9.02;;;22.80;99.90;;;;;;4973111;28;20380;-47
2023/12/12 06:19:49;;;;;;;10.27;8.38;;;22.70;99.90;;;;;;4973288;28;20042;-47
2023/12/12 06:22:15;;;;;;;12.10;8.63;;;22.70;99.90;;;;;;4973265;28;20019;-46
2023/12/12 06:24:41;;;;;;;11.50;8.55;;;22.70;99.90;;;;;;4972923;28;20274;-46
2023/12/12 06:27:07;;;;;;;10.48;7.50;;;22.70;99.90;;;;;;4973162;28;20033;-47
2023/12/12 06:29:33;;;;;;;12.90;8.68;;;22.70;99.90;;;;;;4973519;28;20490;-47
2023/12/12 06:31:59;;;;;;;11.75;8.13;;;22.70;99.90;;;;;;4972875;28;20431;-47
2023/12/12 06:34:24;;;;;;;11.85;7.93;;;22.70;99.90;;;;;;4973067;28;20415;-47
2023/12/12 06:36:51;;;;;;;11.75;8.60;;;22.70;99.90;;;;;;4972869;28;20030;-47
2023/12/12 06:39:16;;;;;;;11.35;7.70;;;22.70;99.90;;;;;;4976106;28;20050;-47
2023/12/12 06:41:42;;;;;;;13.13;8.95;;;22.70;99.90;;;;;;4976826;28;20534;-47
2023/12/12 06:44:08;;;;;;;11.82;7.63;;;22.70;99.90;;;;;;4976701;28;20046;-47
2023/12/12 06:46:36;;;;;;;12.70;8.93;;;22.70;99.90;;;;;;4977098;28;20471;-48
2023/12/12 06:49:03;;;;;;;12.75;7.72;;;22.70;99.90;;;;;;4976915;28;20019;-47
2023/12/12 06:51:29;;;;;;;9.75;7.50;;;22.70;99.90;;;;;;4976743;28;20438;-46
2023/12/12 06:53:58;;;;;;;11.98;7.68;;;22.60;99.90;;;;;;4976395;28;20019;-47
2023/12/12 06:56:25;;;;;;;9.88;7.20;;;22.60;99.90;;;;;;4976686;28;20424;-47
2023/12/12 06:58:50;;;;;;;10.65;7.55;;;22.60;99.90;;;;;;4976480;28;20113;-46
2023/12/12 07:01:16;;;;;;;10.73;7.00;;;22.60;99.90;;;;;;4976501;28;20475;-46
2023/12/12 07:03:42;;;;;;;10.07;7.63;;;22.60;99.90;;;;;;4976043;28;20054;-46
2023/12/12 07:06:08;;;;;;;10.45;7.43;;;22.60;99.90;;;;;;4976255;28;20027;-46
2023/12/12 07:08:35;;;;;;;12.40;7.43;;;22.60;99.90;;;;;;4976420;28;20038;-46
2023/12/12 07:11:01;;;;;;;10.65;7.20;;;22.60;99.90;;;;;;4976494;28;20101;-46
2023/12/12 07:13:27;;;;;;;12.90;6.93;;;22.60;99.90;;;;;;4976073;28;20150;-46
2023/12/12 07:15:53;;;;;;;13.20;7.20;;;22.60;99.90;;;;;;4976404;28;20081;-46
2023/12/12 07:18:19;;;;;;;15.48;6.88;;;22.60;99.90;;;;;;4974949;28;20045;-46
2023/12/12 07:20:46;;;;;;;10.05;7.10;;;22.60;99.90;;;;;;4976307;28;20027;-46
2023/12/12 07:23:12;;;;;;;11.65;7.00;;;22.60;99.90;;;;;;4975894;28;20031;-46
2023/12/12 07:25:38;;;;;;;8.82;6.85;;;22.50;99.90;;;;;;4976073;28;20022;-46
2023/12/12 07:28:04;;;;;;;9.57;6.93;;;22.50;99.90;;;;;;4976101;28;20039;-46
2023/12/12 07:30:30;;;;;;;9.02;6.63;;;22.50;99.90;;;;;;4976086;28;20031;-46
2023/12/12 07:32:58;;;;;;;8.70;6.43;;;22.50;99.90;;;;;;4976155;28;20046;-47
2023/12/12 07:35:24;;;;;;;11.20;7.85;;;22.50;99.90;;;;;;4975618;28;20023;-47
2023/12/12 07:37:50;;;;;;;8.60;6.53;;;22.50;99.90;;;;;;4975880;28;20054;-47
2023/12/12 07:40:17;;;;;;;9.73;7.03;;;22.50;99.90;;;;;;4975860;28;20022;-47
2023/12/12 07:42:45;;;;;;;9.48;7.25;;;22.50;99.90;;;;;;4975199;28;20073;-48
2023/12/12 07:45:11;;;;;;;;;;;22.50;99.90;;;;;;4975836;28;20035;-47
2023/12/12 07:47:37;;;;;;;8.40;6.40;;;22.50;99.90;;;;;;4976056;28;20347;-47
2023/12/12 07:50:06;;;;;;;13.60;7.10;;;22.50;99.90;;;;;;4975222;28;20027;-47
2023/12/12 07:52:32;;;;;;;9.73;6.47;;;22.50;99.90;;;;;;4974479;28;20023;-47
2023/12/12 07:54:58;;;;;;;10.75;6.32;;;22.50;99.90;;;;;;4975627;28;20035;-47
2023/12/12 07:57:24;;;;;;;10.70;7.15;;;22.50;99.90;;;;;;4975323;28;20066;-47
2023/12/12 07:59:50;;;;;;;8.57;6.53;;;22.50;99.90;;;;;;4975581;28;20087;-47
2023/12/12 08:02:16;;;;;;;11.25;6.97;;;22.60;99.90;;;;;;4975073;28;20081;-47
2023/12/12 08:04:42;;;;;;;9.43;6.13;;;22.60;99.90;;;;;;4975109;28;20031;-47
2023/12/12 08:07:08;;;;;;;8.65;6.53;;;22.60;99.90;;;;;;4975664;28;20031;-47
2023/12/12 08:09:35;;;;;;;9.13;6.25;;;22.60;99.90;;;;;;4975248;28;20052;-47
2023/12/12 08:12:03;;;;;;;11.15;6.20;;;22.70;99.90;;;;;;4975246;28;20070;-47
2023/12/12 08:14:29;;;;;;;9.25;6.82;;;22.70;99.90;;;;;;4975113;28;20089;-46
2023/12/12 08:16:54;;;;;;;8.70;6.03;;;22.70;99.90;;;;;;4975036;28;20035;-47
2023/12/12 08:19:20;;;;;;;8.50;6.50;;;22.70;99.90;;;;;;4975109;28;20034;-46
2023/12/12 08:21:46;;;;;;;7.72;5.85;;;22.70;99.90;;;;;;4975054;28;20046;-46
2023/12/12 08:24:12;;;;;;;7.55;5.40;;;22.80;99.90;;;;;;4975098;28;20494;-47
2023/12/12 08:26:46;;;;;;;9.85;5.88;;;22.80;99.90;;;;;;4975282;28;20109;-46
2023/12/12 08:29:14;;;;;;;13.30;6.47;;;22.80;99.90;;;;;;4974727;28;20027;-47
2023/12/12 08:31:40;;;;;;;8.85;5.82;;;22.80;99.90;;;;;;4974886;28;20034;-47
2023/12/12 08:34:07;;;;;;;8.70;6.18;;;22.90;99.90;;;;;;4974725;28;20057;-47
2023/12/12 08:36:33;;;;;;;14.88;6.20;;;22.90;99.90;;;;;;4974587;28;20035;-47
2023/12/12 08:39:00;;;;;;;9.80;6.10;;;22.90;99.90;;;;;;4974374;28;20170;-46
2023/12/12 08:41:28;;;;;;;9.43;6.28;;;22.90;99.90;;;;;;4974472;28;20027;-47
2023/12/12 08:43:57;;;;;;;10.73;5.53;;;23.00;99.90;;;;;;4974403;28;20046;-46
2023/12/12 08:46:26;;;;;;;8.70;5.65;;;23.00;99.90;;;;;;4989590;28;20022;-47
2023/12/12 08:48:56;;;;;;;8.55;5.78;;;23.00;99.90;;;;;;4974289;28;20506;-47
2023/12/12 08:51:23;;;;;;;15.52;5.90;;;23.00;99.90;;;;;;4970527;28;20150;-48
2023/12/12 08:53:49;;;;;;;9.98;5.63;;;23.00;99.90;;;;;;4972976;28;20027;-48
2023/12/12 08:56:16;;;;;;;8.52;5.80;;;23.00;99.90;;;;;;4974420;28;20391;-48
2023/12/12 08:58:51;;;;;;;8.40;5.32;;;23.00;99.90;;;;;;4974029;28;20034;-48
2023/12/12 09:01:17;;;;;;;7.82;5.85;;;23.10;99.90;;;;;;4973654;28;20106;-47
2023/12/12 09:03:43;;;;;;;9.05;5.57;;;23.10;99.90;;;;;;4973898;28;20038;-48
2023/12/12 09:06:09;;;;;;;8.20;5.65;;;23.10;99.90;;;;;;4974584;28;20030;-47
2023/12/12 09:08:35;;;;;;;8.20;5.78;;;23.10;99.90;;;;;;4989301;28;20031;-47
2023/12/12 09:11:01;;;;;;;8.10;5.30;;;23.20;99.90;;;;;;4974351;28;20023;-47
2023/12/12 09:13:27;;;;;;;8.77;5.32;;;23.10;99.90;;;;;;4973570;28;20015;-48
2023/12/12 09:15:54;;;;;;;11.07;5.63;;;23.20;99.90;;;;;;4974041;28;20053;-48
2023/12/12 09:18:20;;;;;;;9.60;5.22;;;23.20;99.90;;;;;;4973987;28;20034;-48
2023/12/12 09:20:47;;;;;;;7.53;5.03;;;23.20;99.90;;;;;;4974002;28;20031;-47
2023/12/12 09:23:13;;;;;;;7.20;5.55;;;23.20;99.90;;;;;;4973518;28;20073;-48
2023/12/12 09:25:39;;;;;;;10.93;5.38;;;23.20;99.90;;;;;;4973522;28;20415;-47
2023/12/12 09:28:05;;;;;;;8.10;5.18;;;23.30;99.90;;;;;;4973568;28;20542;-47
2023/12/12 09:30:31;;;;;;;8.00;5.50;;;23.30;99.90;;;;;;4973874;28;20114;-47
2023/12/12 09:32:57;;;;;;;8.52;4.95;;;23.40;99.90;;;;;;4973443;28;20035;-47
2023/12/12 09:35:24;;;;;;;7.20;4.80;;;23.40;99.90;;;;;;4973731;28;20034;-47
2023/12/12 09:37:50;;;;;;;7.68;4.60;;;23.40;99.90;;;;;;4973658;28;20041;-47
2023/12/12 09:40:16;;;;;;;9.52;5.55;;;23.40;99.90;;;;;;4972412;28;20365;-47
2023/12/12 09:42:45;;;;;;;12.18;5.75;;;23.40;99.90;;;;;;4973439;28;20030;-46
2023/12/12 09:45:15;;;;;;;8.93;5.05;;;23.50;99.90;;;;;;4973722;28;20027;-47
2023/12/12 09:47:45;;;;;;;23.25;5.70;;;23.50;99.90;;;;;;4973192;28;20011;-47
2023/12/12 09:50:12;;;;;;;9.38;4.70;;;23.50;99.90;;;;;;4972162;28;20117;-47
2023/12/12 09:52:38;;;;;;;9.38;5.30;;;23.60;99.90;;;;;;4973346;28;20018;-46
2023/12/12 09:55:06;;;;;;;9.35;5.65;;;23.60;99.90;;;;;;4973240;28;20041;-47
2023/12/12 09:57:35;;;;;;;7.53;4.88;;;23.60;99.90;;;;;;4973054;28;20034;-46
2023/12/12 10:00:01;;;;;;;9.52;5.07;;;23.70;99.90;;;;;;4973517;28;20031;-47
2023/12/12 10:02:33;;;;;;;11.80;5.53;;;23.70;99.90;;;;;;4972268;28;20045;-46
2023/12/12 10:05:00;;;;;;;9.68;5.10;;;23.80;99.90;;;;;;4973099;28;20019;-47
2023/12/12 10:07:27;;;;;;;11.23;5.50;;;23.80;99.90;;;;;;4973683;28;20027;-47
2023/12/12 10:09:53;;;;;;;12.32;5.63;;;23.90;99.90;;;;;;4973002;28;20085;-46
2023/12/12 10:12:19;;;;;;;14.27;5.38;;;23.90;99.90;;;;;;4974621;28;20042;-47
2023/12/12 10:14:47;;;;;;;13.38;5.07;;;23.90;99.90;;;;;;4977590;28;20030;-46
2023/12/12 10:17:13;;;;;;;15.90;5.78;;;23.90;99.90;;;;;;4977737;28;20030;-47
2023/12/12 10:19:40;;;;;;;12.77;5.88;;;24.00;99.90;;;;;;4976785;28;20073;-46
2023/12/12 10:22:09;;;;;;;10.52;5.07;;;24.00;99.90;;;;;;4977158;28;20023;-46
2023/12/12 10:24:36;;;;;;;15.32;5.47;;;24.10;99.90;;;;;;4977360;28;20027;-47
2023/12/12 10:27:06;;;;;;;12.68;5.82;;;24.10;99.90;;;;;;4977329;28;20384;-47
2023/12/12 10:29:32;;;;;;;12.85;5.30;;;24.20;99.90;;;;;;4977337;28;20045;-46
2023/12/12 10:31:59;;;;;;;10.07;5.65;;;24.20;99.90;;;;;;4975407;28;20019;-46
2023/12/12 10:34:27;;;;;;;10.63;5.40;;;24.20;99.90;;;;;;4975360;28;20033;-47
2023/12/12 10:36:53;;;;;;;17.15;5.95;;;24.30;99.90;;;;;;4976861;28;20034;-48
2023/12/12 10:39:19;;;;;;;11.65;5.72;;;24.30;99.90;;;;;;4970904;28;20054;-48
2023/12/12 10:41:55;;;;;;;14.85;5.88;;;24.30;99.90;;;;;;4957872;28;20487;-47
2023/12/12 10:44:32;;;;;;;12.85;5.75;;;24.40;99.90;;;;;;4959035;28;20027;-47
2023/12/12 10:47:01;;;;;;;11.85;6.10;;;24.40;99.90;;;;;;4976784;28;20488;-47
2023/12/12 10:49:31;;;;;;;13.52;4.75;;;24.40;99.90;;;;;;4964009;28;20468;-47
2023/12/12 10:52:01;;;;;;;5.85;4.03;;;24.50;99.90;;;;;;4957461;28;20023;-47
2023/12/12 10:54:31;;;;;;;8.30;4.25;;;24.50;99.90;;;;;;4974598;28;20483;-46
2023/12/12 10:57:00;;;;;;;6.65;4.38;;;24.50;99.90;;;;;;4959680;28;20046;-47
2023/12/12 10:59:28;;;;;;;7.10;4.60;;;24.50;99.90;;;;;;4960924;28;20035;-47
2023/12/12 11:01:54;;;;;;;10.10;9.10;;;24.50;99.90;;;;;;4966949;28;20046;-47
2023/12/12 11:04:23;;;;;;;15.02;7.97;;;24.50;99.90;;;;;;4975612;28;20081;-47
2023/12/12 11:06:50;;;;;;;9.85;4.78;;;24.50;99.90;;;;;;4975367;28;20023;-47
2023/12/12 11:09:16;;;;;;;6.75;4.43;;;24.50;99.90;;;;;;4973680;28;20117;-46
2023/12/12 11:11:45;;;;;;;6.82;3.88;;;24.50;99.90;;;;;;4976300;28;20487;-46
2023/12/12 11:14:12;;;;;;;10.73;3.95;;;24.60;99.90;;;;;;4976510;28;20031;-46
2023/12/12 11:16:38;;;;;;;8.18;3.63;;;24.60;99.90;;;;;;4974895;28;20146;-47
2023/12/12 11:19:04;;;;;;;6.20;2.80;;;24.60;99.90;;;;;;4974742;28;20130;-46
2023/12/12 11:21:47;;;;;;;6.55;3.33;;;24.60;99.90;;;;;;4972495;28;20035;-46
2023/12/12 11:24:20;;;;;;;6.78;3.05;;;24.60;99.90;;;;;;4973831;28;20085;-47
2023/12/12 11:26:52;;;;;;;9.23;3.35;;;24.70;99.90;;;;;;4966973;28;20023;-46
2023/12/12 11:29:24;;;;;;;7.93;3.28;;;24.70;99.90;;;;;;4956913;28;20032;-47
2023/12/12 11:32:03;;;;;;;10.73;2.70;;;24.70;99.90;;;;;;4957152;28;20023;-47
2023/12/12 11:34:41;;;;;;;7.70;3.30;;;24.80;99.90;;;;;;4961136;28;20106;-47
2023/12/12 11:37:08;;;;;;;26.13;3.33;;;24.80;99.90;;;;;;4966644;28;20042;-49
2023/12/12 11:39:46;;;;;;;7.55;2.78;;;24.80;99.90;;;;;;4975826;28;20027;-45
2023/12/12 11:42:19;;;;;;;18.95;3.55;;;24.90;99.90;;;;;;4972418;28;20091;-46
2023/12/12 11:44:54;;;;;;;10.13;3.40;;;24.90;99.90;;;;;;4956530;28;20034;-45
2023/12/12 11:47:23;;;;;;;6.97;2.80;;;25.00;99.90;;;;;;4956595;28;20082;-46
2023/12/12 11:49:50;;;;;;;19.92;3.70;;;25.00;99.90;;;;;;4959259;28;20417;-48
2023/12/12 11:52:48;;;;;;;10.40;3.60;;;25.10;99.90;;;;;;4975134;28;20424;-49
2023/12/12 11:55:29;;;;;;;8.55;3.42;;;25.20;99.90;;;;;;4975421;28;20093;-47
2023/12/12 11:58:02;;;;;;;6.43;2.63;;;25.20;99.90;;;;;;4975342;28;20039;-48
2023/12/12 12:00:40;;;;;;;5.78;2.75;;;25.30;99.90;;;;;;4975437;28;20035;-49
2023/12/12 12:03:10;;;;;;;6.07;2.83;;;25.30;99.90;;;;;;4973878;28;20051;-46
2023/12/12 12:05:36;;;;;;;4.38;2.55;;;25.30;99.90;;;;;;4975284;28;20027;-47
2023/12/12 12:08:02;;;;;;;7.13;2.80;;;25.40;99.90;;;;;;4974756;28;20487;-47
2023/12/12 12:10:28;;;;;;;12.40;2.97;;;25.40;99.90;;;;;;4969985;28;20122;-52
2023/12/12 12:12:56;;;;;;;8.65;2.55;;;25.40;99.90;;;;;;4975185;28;20447;-44
2023/12/12 12:15:22;;;;;;;20.85;7.60;;;25.40;99.90;;;;;;4975432;28;20027;-45
2023/12/12 12:17:48;;;;;;;35.20;19.73;;;25.50;99.90;;;;;;4974701;28;20031;-46
2023/12/12 12:20:14;;;;;;;85.32;53.50;;;25.50;99.90;;;;;;4974771;28;20042;-59
2023/12/12 12:22:40;;;;;;;120.32;69.60;;;25.60;99.90;;;;;;4974756;28;20038;-53
2023/12/12 12:25:06;;;;;;;160.70;101.43;;;25.60;99.90;;;;;;4974610;28;20394;-52
2023/12/12 12:27:47;;;;;;;202.50;119.15;;;25.60;99.90;;;;;;4974893;28;20027;-48
2023/12/12 12:30:12;;;;;;;206.07;121.72;;;25.70;99.90;;;;;;4971849;28;20078;-54
2023/12/12 12:32:38;;;;;;;223.38;131.95;;;25.70;99.90;;;;;;4973579;28;20475;-48
2023/12/12 12:35:07;;;;;;;261.10;151.15;;;25.80;99.90;;;;;;4964037;28;20059;-46